sensor_id;sensor_type;location;lat;lon;timestamp;pressure;altitude;pressure_sealevel;temperature;humidity
76156;BME280;64906;51.290;7.348;2023-12-28T00:01:19;98176.06;;;17.33;52.69
76156;BME280;64906;51.290;7.348;2023-12-28T00:03:45;98189.38;;;17.40;52.82
76156;BME280;64906;51.290;7.348;2023-12-28T00:06:10;98179.28;;;17.40;52.81
76156;BME280;64906;51.290;7.348;2023-12-28T00:08:35;98188.88;;;17.38;52.80
76156;BME280;64906;51.290;7.348;2023-12-28T00:11:00;98183.47;;;17.33;53.03
76156;BME280;64906;51.290;7.348;2023-12-28T00:13:26;98186.47;;;17.31;52.80
76156;BME280;64906;51.290;7.348;2023-12-28T00:15:51;98189.25;;;17.26;53.01
76156;BME280;64906;51.290;7.348;2023-12-28T00:18:16;98197.09;;;17.33;52.80
76156;BME280;64906;51.290;7.348;2023-12-28T00:20:42;98197.88;;;17.33;52.70
76156;BME280;64906;51.290;7.348;2023-12-28T00:23:07;98207.75;;;17.29;52.85
76156;BME280;64906;51.290;7.348;2023-12-28T00:25:32;98208.59;;;17.30;52.94
76156;BME280;64906;51.290;7.348;2023-12-28T00:27:57;98212.69;;;17.27;52.96
76156;BME280;64906;51.290;7.348;2023-12-28T00:30:23;98229.03;;;17.27;52.98
76156;BME280;64906;51.290;7.348;2023-12-28T00:32:48;98208.63;;;17.25;52.89
76156;BME280;64906;51.290;7.348;2023-12-28T00:35:13;98218.59;;;17.39;52.52
76156;BME280;64906;51.290;7.348;2023-12-28T00:37:39;98206.97;;;17.24;52.61
76156;BME280;64906;51.290;7.348;2023-12-28T00:40:05;98226.31;;;17.27;52.91
76156;BME280;64906;51.290;7.348;2023-12-28T00:42:30;98222.44;;;17.33;52.73
76156;BME280;64906;51.290;7.348;2023-12-28T00:44:56;98216.28;;;17.23;52.59
76156;BME280;64906;51.290;7.348;2023-12-28T00:47:21;98211.56;;;17.28;52.73
76156;BME280;64906;51.290;7.348;2023-12-28T00:49:46;98222.22;;;17.30;52.95
76156;BME280;64906;51.290;7.348;2023-12-28T00:52:11;98221.97;;;17.26;52.57
76156;BME280;64906;51.290;7.348;2023-12-28T00:54:37;98222.59;;;17.18;52.98
76156;BME280;64906;51.290;7.348;2023-12-28T00:57:05;98208.88;;;17.23;52.78
76156;BME280;64906;51.290;7.348;2023-12-28T00:59:30;98198.88;;;17.14;53.02
76156;BME280;64906;51.290;7.348;2023-12-28T01:01:56;98216.84;;;17.20;52.87
76156;BME280;64906;51.290;7.348;2023-12-28T01:04:22;98240.06;;;17.12;52.89
76156;BME280;64906;51.290;7.348;2023-12-28T01:06:49;98223.81;;;16.97;53.45
76156;BME280;64906;51.290;7.348;2023-12-28T01:09:14;98221.25;;;17.11;53.24
76156;BME280;64906;51.290;7.348;2023-12-28T01:11:40;98223.13;;;17.15;52.86
76156;BME280;64906;51.290;7.348;2023-12-28T01:14:05;98222.13;;;17.06;53.23
76156;BME280;64906;51.290;7.348;2023-12-28T01:16:31;98217.81;;;17.00;53.07
76156;BME280;64906;51.290;7.348;2023-12-28T01:18:56;98228.88;;;17.14;53.05
76156;BME280;64906;51.290;7.348;2023-12-28T01:21:21;98228.38;;;17.12;52.91
76156;BME280;64906;51.290;7.348;2023-12-28T01:23:47;98226.47;;;17.07;53.06
76156;BME280;64906;51.290;7.348;2023-12-28T01:26:15;98222.09;;;17.11;53.33
76156;BME280;64906;51.290;7.348;2023-12-28T01:28:42;98233.00;;;17.11;52.92
76156;BME280;64906;51.290;7.348;2023-12-28T01:31:07;98226.47;;;17.07;53.04
76156;BME280;64906;51.290;7.348;2023-12-28T01:33:33;98226.91;;;17.24;52.57
76156;BME280;64906;51.290;7.348;2023-12-28T01:35:58;98247.72;;;17.10;52.86
76156;BME280;64906;51.290;7.348;2023-12-28T01:38:24;98245.50;;;17.17;52.79
76156;BME280;64906;51.290;7.348;2023-12-28T01:40:49;98252.84;;;17.17;52.74
76156;BME280;64906;51.290;7.348;2023-12-28T01:43:14;98238.44;;;17.11;52.67
76156;BME280;64906;51.290;7.348;2023-12-28T01:45:40;98247.78;;;17.05;52.81
76156;BME280;64906;51.290;7.348;2023-12-28T01:48:05;98251.53;;;17.09;52.67
76156;BME280;64906;51.290;7.348;2023-12-28T01:50:31;98250.50;;;17.05;52.96
76156;BME280;64906;51.290;7.348;2023-12-28T01:52:58;98253.94;;;17.16;52.64
76156;BME280;64906;51.290;7.348;2023-12-28T01:55:26;98260.84;;;17.08;52.64
76156;BME280;64906;51.290;7.348;2023-12-28T01:57:52;98268.41;;;17.16;52.60
76156;BME280;64906;51.290;7.348;2023-12-28T02:00:21;98265.50;;;17.03;52.94
76156;BME280;64906;51.290;7.348;2023-12-28T02:02:47;98261.88;;;17.12;52.79
76156;BME280;64906;51.290;7.348;2023-12-28T02:05:13;98261.84;;;17.17;52.52
76156;BME280;64906;51.290;7.348;2023-12-28T02:07:39;98261.41;;;17.05;52.86
76156;BME280;64906;51.290;7.348;2023-12-28T02:10:05;98265.19;;;17.09;52.56
76156;BME280;64906;51.290;7.348;2023-12-28T02:12:30;98271.19;;;17.11;52.50
76156;BME280;64906;51.290;7.348;2023-12-28T02:14:56;98259.75;;;17.04;52.79
76156;BME280;64906;51.290;7.348;2023-12-28T02:17:38;98259.22;;;17.02;52.59
76156;BME280;64906;51.290;7.348;2023-12-28T02:20:08;98264.91;;;17.11;52.61
76156;BME280;64906;51.290;7.348;2023-12-28T02:22:34;98254.56;;;17.08;52.77
76156;BME280;64906;51.290;7.348;2023-12-28T02:27:44;98269.28;;;17.12;52.48
76156;BME280;64906;51.290;7.348;2023-12-28T02:30:11;98279.09;;;17.08;52.68
76156;BME280;64906;51.290;7.348;2023-12-28T02:35:14;98290.25;;;17.11;52.29
76156;BME280;64906;51.290;7.348;2023-12-28T02:37:42;98281.56;;;17.04;52.57
76156;BME280;64906;51.290;7.348;2023-12-28T02:40:08;98287.81;;;17.10;52.54
76156;BME280;64906;51.290;7.348;2023-12-28T02:42:34;98287.31;;;17.03;52.65
76156;BME280;64906;51.290;7.348;2023-12-28T02:45:00;98287.84;;;17.05;52.53
76156;BME280;64906;51.290;7.348;2023-12-28T02:47:25;98295.75;;;17.06;52.45
76156;BME280;64906;51.290;7.348;2023-12-28T02:49:50;98289.97;;;17.13;52.64
76156;BME280;64906;51.290;7.348;2023-12-28T02:52:15;98280.50;;;17.05;52.92
76156;BME280;64906;51.290;7.348;2023-12-28T02:54:41;98279.41;;;17.01;52.77
76156;BME280;64906;51.290;7.348;2023-12-28T02:57:06;98288.13;;;17.03;52.52
76156;BME280;64906;51.290;7.348;2023-12-28T02:59:31;98289.72;;;17.09;52.23
76156;BME280;64906;51.290;7.348;2023-12-28T03:01:57;98295.97;;;17.15;52.30
76156;BME280;64906;51.290;7.348;2023-12-28T03:04:22;98290.72;;;17.23;52.04
76156;BME280;64906;51.290;7.348;2023-12-28T03:06:47;98280.66;;;17.19;52.29
76156;BME280;64906;51.290;7.348;2023-12-28T03:09:13;98283.34;;;17.24;51.79
76156;BME280;64906;51.290;7.348;2023-12-28T03:11:38;98286.13;;;17.14;52.29
76156;BME280;64906;51.290;7.348;2023-12-28T03:14:03;98280.38;;;17.20;52.02
76156;BME280;64906;51.290;7.348;2023-12-28T03:16:28;98268.13;;;17.18;52.07
76156;BME280;64906;51.290;7.348;2023-12-28T03:18:54;98272.81;;;17.07;52.27
76156;BME280;64906;51.290;7.348;2023-12-28T03:21:19;98265.41;;;17.18;52.02
76156;BME280;64906;51.290;7.348;2023-12-28T03:23:44;98262.38;;;17.19;52.00
76156;BME280;64906;51.290;7.348;2023-12-28T03:26:09;98253.41;;;17.14;52.04
76156;BME280;64906;51.290;7.348;2023-12-28T03:28:35;98260.91;;;16.98;52.47
76156;BME280;64906;51.290;7.348;2023-12-28T03:31:02;98257.63;;;16.96;52.58
76156;BME280;64906;51.290;7.348;2023-12-28T03:33:27;98258.69;;;17.05;52.29
76156;BME280;64906;51.290;7.348;2023-12-28T03:35:52;98264.06;;;17.10;52.07
76156;BME280;64906;51.290;7.348;2023-12-28T03:38:18;98267.66;;;17.06;52.27
76156;BME280;64906;51.290;7.348;2023-12-28T03:40:43;98271.75;;;17.08;52.10
76156;BME280;64906;51.290;7.348;2023-12-28T03:43:12;98265.47;;;17.08;52.07
76156;BME280;64906;51.290;7.348;2023-12-28T03:45:37;98266.28;;;17.08;52.03
76156;BME280;64906;51.290;7.348;2023-12-28T03:48:03;98269.81;;;17.09;52.05
76156;BME280;64906;51.290;7.348;2023-12-28T03:50:28;98263.53;;;17.13;52.07
76156;BME280;64906;51.290;7.348;2023-12-28T03:52:54;98270.63;;;17.09;51.87
76156;BME280;64906;51.290;7.348;2023-12-28T03:55:19;98269.59;;;17.05;51.98
76156;BME280;64906;51.290;7.348;2023-12-28T03:57:44;98271.22;;;17.06;51.94
76156;BME280;64906;51.290;7.348;2023-12-28T04:00:12;98267.91;;;17.09;52.10
76156;BME280;64906;51.290;7.348;2023-12-28T04:02:37;98260.25;;;17.11;51.96
76156;BME280;64906;51.290;7.348;2023-12-28T04:05:02;98257.25;;;17.13;52.04
76156;BME280;64906;51.290;7.348;2023-12-28T04:07:29;98255.94;;;17.05;51.93
76156;BME280;64906;51.290;7.348;2023-12-28T04:09:54;98255.88;;;17.10;51.75
76156;BME280;64906;51.290;7.348;2023-12-28T04:12:21;98266.25;;;17.13;51.81
76156;BME280;64906;51.290;7.348;2023-12-28T04:14:46;98259.50;;;17.01;52.18
76156;BME280;64906;51.290;7.348;2023-12-28T04:17:11;98261.41;;;17.05;51.83
76156;BME280;64906;51.290;7.348;2023-12-28T04:19:37;98257.59;;;17.01;52.19
76156;BME280;64906;51.290;7.348;2023-12-28T04:22:02;98258.94;;;17.04;51.96
76156;BME280;64906;51.290;7.348;2023-12-28T04:24:27;98244.25;;;17.00;52.13
76156;BME280;64906;51.290;7.348;2023-12-28T04:26:53;98252.69;;;17.03;51.89
76156;BME280;64906;51.290;7.348;2023-12-28T04:29:18;98259.22;;;17.02;51.93
76156;BME280;64906;51.290;7.348;2023-12-28T04:31:43;98267.69;;;17.01;52.26
76156;BME280;64906;51.290;7.348;2023-12-28T04:34:08;98259.50;;;17.01;51.99
76156;BME280;64906;51.290;7.348;2023-12-28T04:36:42;98246.97;;;17.00;52.22
76156;BME280;64906;51.290;7.348;2023-12-28T04:39:12;98242.81;;;17.07;52.03
76156;BME280;64906;51.290;7.348;2023-12-28T04:41:37;98237.97;;;16.99;52.16
76156;BME280;64906;51.290;7.348;2023-12-28T04:44:03;98222.22;;;16.91;52.01
76156;BME280;64906;51.290;7.348;2023-12-28T04:46:28;98244.22;;;17.05;51.99
76156;BME280;64906;51.290;7.348;2023-12-28T04:48:53;98252.16;;;17.01;51.86
76156;BME280;64906;51.290;7.348;2023-12-28T04:51:19;98251.91;;;16.98;51.90
76156;BME280;64906;51.290;7.348;2023-12-28T04:53:44;98245.91;;;16.96;51.99
76156;BME280;64906;51.290;7.348;2023-12-28T04:56:09;98242.09;;;16.97;52.18
76156;BME280;64906;51.290;7.348;2023-12-28T04:58:34;98240.69;;;16.99;52.13
76156;BME280;64906;51.290;7.348;2023-12-28T05:01:01;98238.50;;;17.01;52.04
76156;BME280;64906;51.290;7.348;2023-12-28T05:03:28;98246.72;;;16.96;51.99
76156;BME280;64906;51.290;7.348;2023-12-28T05:05:53;98255.22;;;16.90;52.08
76156;BME280;64906;51.290;7.348;2023-12-28T05:08:18;98247.84;;;16.95;52.01
76156;BME280;64906;51.290;7.348;2023-12-28T05:10:43;98244.88;;;16.87;52.08
76156;BME280;64906;51.290;7.348;2023-12-28T05:13:09;98259.84;;;16.89;52.28
76156;BME280;64906;51.290;7.348;2023-12-28T05:15:34;98269.66;;;16.90;52.28
76156;BME280;64906;51.290;7.348;2023-12-28T05:18:00;98257.72;;;16.81;52.33
76156;BME280;64906;51.290;7.348;2023-12-28T05:20:25;98258.50;;;16.87;52.21
76156;BME280;64906;51.290;7.348;2023-12-28T05:22:50;98263.66;;;16.93;51.88
76156;BME280;64906;51.290;7.348;2023-12-28T05:25:15;98270.22;;;16.92;52.22
76156;BME280;64906;51.290;7.348;2023-12-28T05:27:41;98268.34;;;16.83;52.25
76156;BME280;64906;51.290;7.348;2023-12-28T05:30:07;98280.28;;;16.92;52.01
76156;BME280;64906;51.290;7.348;2023-12-28T05:32:33;98287.69;;;16.81;52.52
76156;BME280;64906;51.290;7.348;2023-12-28T05:34:58;98292.34;;;16.81;52.45
76156;BME280;64906;51.290;7.348;2023-12-28T05:37:24;98281.16;;;16.87;52.24
76156;BME280;64906;51.290;7.348;2023-12-28T05:39:49;98282.25;;;16.81;52.66
76156;BME280;64906;51.290;7.348;2023-12-28T05:42:14;98295.59;;;16.83;52.49
76156;BME280;64906;51.290;7.348;2023-12-28T05:44:40;98295.56;;;16.88;52.59
76156;BME280;64906;51.290;7.348;2023-12-28T05:47:05;98293.41;;;16.85;52.70
76156;BME280;64906;51.290;7.348;2023-12-28T05:49:30;98291.22;;;16.87;52.68
76156;BME280;64906;51.290;7.348;2023-12-28T05:51:56;98281.16;;;16.87;52.61
76156;BME280;64906;51.290;7.348;2023-12-28T05:54:21;98280.28;;;16.92;52.74
76156;BME280;64906;51.290;7.348;2023-12-28T05:56:46;98306.75;;;16.86;52.97
76156;BME280;64906;51.290;7.348;2023-12-28T05:59:12;98300.00;;;16.79;53.18
76156;BME280;64906;51.290;7.348;2023-12-28T06:01:43;98305.66;;;16.92;52.84
76156;BME280;64906;51.290;7.348;2023-12-28T06:04:09;98309.47;;;16.91;53.04
76156;BME280;64906;51.290;7.348;2023-12-28T06:06:34;98325.84;;;16.86;53.10
76156;BME280;64906;51.290;7.348;2023-12-28T06:09:01;98325.88;;;16.81;53.52
76156;BME280;64906;51.290;7.348;2023-12-28T06:11:28;98334.56;;;16.88;53.25
76156;BME280;64906;51.290;7.348;2023-12-28T06:13:54;98343.25;;;16.95;53.09
76156;BME280;64906;51.290;7.348;2023-12-28T06:16:19;98337.84;;;16.90;53.25
76156;BME280;64906;51.290;7.348;2023-12-28T06:18:44;98334.81;;;16.97;53.20
76156;BME280;64906;51.290;7.348;2023-12-28T06:21:09;98338.38;;;16.92;53.38
76156;BME280;64906;51.290;7.348;2023-12-28T06:23:35;98338.56;;;17.01;53.23
76156;BME280;64906;51.290;7.348;2023-12-28T06:26:06;98343.00;;;16.92;53.57
76156;BME280;64906;51.290;7.348;2023-12-28T06:28:31;98350.56;;;17.05;53.53
76156;BME280;64906;51.290;7.348;2023-12-28T06:30:58;98352.53;;;16.94;53.56
76156;BME280;64906;51.290;7.348;2023-12-28T06:33:26;98356.34;;;16.93;53.71
76156;BME280;64906;51.290;7.348;2023-12-28T06:35:52;98343.31;;;16.85;54.16
76156;BME280;64906;51.290;7.348;2023-12-28T06:38:18;98347.31;;;17.03;53.54
76156;BME280;64906;51.290;7.348;2023-12-28T06:40:43;98353.59;;;17.03;53.50
76156;BME280;64906;51.290;7.348;2023-12-28T06:43:08;98342.13;;;17.01;53.64
76156;BME280;64906;51.290;7.348;2023-12-28T06:45:34;98344.63;;;16.93;54.01
76156;BME280;64906;51.290;7.348;2023-12-28T06:47:59;98338.31;;;16.97;54.10
76156;BME280;64906;51.290;7.348;2023-12-28T06:50:24;98336.13;;;16.99;53.95
76156;BME280;64906;51.290;7.348;2023-12-28T06:52:50;98348.91;;;17.09;53.92
76156;BME280;64906;51.290;7.348;2023-12-28T06:55:15;98351.09;;;17.12;53.85
76156;BME280;64906;51.290;7.348;2023-12-28T06:57:40;98349.75;;;17.04;53.97
76156;BME280;64906;51.290;7.348;2023-12-28T07:00:06;98349.72;;;17.09;53.77
76156;BME280;64906;51.290;7.348;2023-12-28T07:02:32;98345.38;;;17.08;53.87
76156;BME280;64906;51.290;7.348;2023-12-28T07:04:57;98333.31;;;17.19;53.93
76156;BME280;64906;51.290;7.348;2023-12-28T07:07:23;98341.84;;;17.03;53.95
76156;BME280;64906;51.290;7.348;2023-12-28T07:09:48;98343.09;;;17.20;53.96
76156;BME280;64906;51.290;7.348;2023-12-28T07:12:13;98338.25;;;17.12;53.95
76156;BME280;64906;51.290;7.348;2023-12-28T07:14:39;98340.94;;;17.17;53.90
76156;BME280;64906;51.290;7.348;2023-12-28T07:17:04;98337.75;;;17.05;54.28
76156;BME280;64906;51.290;7.348;2023-12-28T07:19:29;98346.97;;;17.14;54.31
76156;BME280;64906;51.290;7.348;2023-12-28T07:21:54;98347.53;;;17.11;54.48
76156;BME280;64906;51.290;7.348;2023-12-28T07:24:20;98355.41;;;17.18;54.03
76156;BME280;64906;51.290;7.348;2023-12-28T07:26:45;98352.69;;;17.18;54.19
76156;BME280;64906;51.290;7.348;2023-12-28T07:29:10;98354.56;;;17.22;54.21
76156;BME280;64906;51.290;7.348;2023-12-28T07:31:35;98368.47;;;17.21;54.23
76156;BME280;64906;51.290;7.348;2023-12-28T07:34:02;98363.88;;;17.16;54.52
76156;BME280;64906;51.290;7.348;2023-12-28T07:36:27;98368.47;;;17.21;54.34
76156;BME280;64906;51.290;7.348;2023-12-28T07:38:52;98359.66;;;17.39;53.86
76156;BME280;64906;51.290;7.348;2023-12-28T07:41:17;98379.91;;;17.28;54.17
76156;BME280;64906;51.290;7.348;2023-12-28T07:43:43;98363.75;;;17.36;54.00
76156;BME280;64906;51.290;7.348;2023-12-28T07:46:08;98352.25;;;17.44;53.64
76156;BME280;64906;51.290;7.348;2023-12-28T07:48:34;98375.19;;;17.38;54.12
76156;BME280;64906;51.290;7.348;2023-12-28T07:51:06;98360.72;;;17.43;54.07
76156;BME280;64906;51.290;7.348;2023-12-28T07:53:32;98358.03;;;17.38;54.18
76156;BME280;64906;51.290;7.348;2023-12-28T07:55:57;98360.19;;;17.41;53.93
76156;BME280;64906;51.290;7.348;2023-12-28T07:58:22;98374.00;;;17.60;53.59
76156;BME280;64906;51.290;7.348;2023-12-28T08:00:48;98372.34;;;17.64;53.66
76156;BME280;64906;51.290;7.348;2023-12-28T08:03:14;98370.72;;;17.63;53.45
76156;BME280;64906;51.290;7.348;2023-12-28T08:05:41;98374.59;;;17.52;53.48
76156;BME280;64906;51.290;7.348;2023-12-28T08:08:06;98382.41;;;17.68;53.32
76156;BME280;64906;51.290;7.348;2023-12-28T08:10:32;98377.34;;;17.47;53.71
76156;BME280;64906;51.290;7.348;2023-12-28T08:12:57;98377.25;;;17.62;53.45
76156;BME280;64906;51.290;7.348;2023-12-28T08:15:23;98388.72;;;17.64;53.42
76156;BME280;64906;51.290;7.348;2023-12-28T08:17:48;98393.56;;;17.72;52.88
76156;BME280;64906;51.290;7.348;2023-12-28T08:20:13;98390.31;;;17.70;53.10
76156;BME280;64906;51.290;7.348;2023-12-28T08:22:39;98391.38;;;17.74;52.81
76156;BME280;64906;51.290;7.348;2023-12-28T08:25:04;98386.00;;;17.59;53.54
76156;BME280;64906;51.290;7.348;2023-12-28T08:27:29;98395.19;;;17.73;52.86
76156;BME280;64906;51.290;7.348;2023-12-28T08:29:55;98391.41;;;17.69;52.93
76156;BME280;64906;51.290;7.348;2023-12-28T08:32:20;98399.97;;;17.52;53.41
76156;BME280;64906;51.290;7.348;2023-12-28T08:34:45;98389.78;;;17.68;52.78
76156;BME280;64906;51.290;7.348;2023-12-28T08:37:12;98396.78;;;17.84;52.65
76156;BME280;64906;51.290;7.348;2023-12-28T08:39:39;98394.38;;;17.77;52.70
76156;BME280;64906;51.290;7.348;2023-12-28T08:42:05;98400.31;;;17.79;52.43
76156;BME280;64906;51.290;7.348;2023-12-28T08:44:30;98408.78;;;17.83;52.38
76156;BME280;64906;51.290;7.348;2023-12-28T08:46:55;98404.56;;;18.00;51.83
76156;BME280;64906;51.290;7.348;2023-12-28T08:49:21;98404.94;;;17.89;51.99
76156;BME280;64906;51.290;7.348;2023-12-28T08:51:47;98410.56;;;17.97;51.82
76156;BME280;64906;51.290;7.348;2023-12-28T08:54:13;98419.03;;;17.96;52.11
76156;BME280;64906;51.290;7.348;2023-12-28T08:56:39;98420.38;;;18.03;52.01
76156;BME280;64906;51.290;7.348;2023-12-28T08:59:05;98433.13;;;18.13;51.54
76156;BME280;64906;51.290;7.348;2023-12-28T09:01:30;98439.47;;;18.08;51.67
76156;BME280;64906;51.290;7.348;2023-12-28T09:03:56;98432.81;;;18.19;51.31
76156;BME280;64906;51.290;7.348;2023-12-28T09:06:21;98432.81;;;18.19;51.31
76156;BME280;64906;51.290;7.348;2023-12-28T09:08:50;98431.84;;;18.05;51.66
76156;BME280;64906;51.290;7.348;2023-12-28T09:11:16;98433.00;;;18.28;51.20
76156;BME280;64906;51.290;7.348;2023-12-28T09:13:42;98427.25;;;18.29;51.24
76156;BME280;64906;51.290;7.348;2023-12-28T09:16:10;98426.81;;;18.17;51.47
76156;BME280;64906;51.290;7.348;2023-12-28T09:18:36;98423.03;;;18.13;51.75
76156;BME280;64906;51.290;7.348;2023-12-28T09:21:03;98427.25;;;18.29;51.46
76156;BME280;64906;51.290;7.348;2023-12-28T09:23:28;98426.50;;;18.19;51.96
76156;BME280;64906;51.290;7.348;2023-12-28T09:25:54;98433.66;;;18.48;51.06
76156;BME280;64906;51.290;7.348;2023-12-28T09:28:19;98437.97;;;18.21;51.78
76156;BME280;64906;51.290;7.348;2023-12-28T09:30:44;98445.28;;;18.30;51.66
76156;BME280;64906;51.290;7.348;2023-12-28T09:33:10;98439.47;;;18.42;51.21
76156;BME280;64906;51.290;7.348;2023-12-28T09:35:35;98436.75;;;18.37;51.42
76156;BME280;64906;51.290;7.348;2023-12-28T09:38:01;98432.78;;;18.53;51.13
76156;BME280;64906;51.290;7.348;2023-12-28T09:40:26;98445.22;;;18.35;51.56
76156;BME280;64906;51.290;7.348;2023-12-28T09:43:01;98443.09;;;18.61;50.87
76156;BME280;64906;51.290;7.348;2023-12-28T09:45:29;98442.88;;;18.57;51.12
76156;BME280;64906;51.290;7.348;2023-12-28T09:47:55;98445.09;;;18.55;51.02
76156;BME280;64906;51.290;7.348;2023-12-28T09:50:21;98449.72;;;18.55;51.31
76156;BME280;64906;51.290;7.348;2023-12-28T09:52:47;98445.66;;;18.52;51.33
76156;BME280;64906;51.290;7.348;2023-12-28T09:55:12;98443.03;;;18.66;50.73
76156;BME280;64906;51.290;7.348;2023-12-28T09:57:38;98446.66;;;18.61;50.82
76156;BME280;64906;51.290;7.348;2023-12-28T10:00:05;98441.28;;;18.80;50.88
76156;BME280;64906;51.290;7.348;2023-12-28T10:02:32;98462.03;;;18.81;51.00
76156;BME280;64906;51.290;7.348;2023-12-28T10:04:58;98441.28;;;18.80;50.88
76156;BME280;64906;51.290;7.348;2023-12-28T10:07:24;98446.69;;;18.85;50.92
76156;BME280;64906;51.290;7.348;2023-12-28T10:09:49;98440.97;;;18.82;50.92
76156;BME280;64906;51.290;7.348;2023-12-28T10:12:14;98439.03;;;18.87;50.97
76156;BME280;64906;51.290;7.348;2023-12-28T10:14:40;98429.88;;;18.97;50.83
76156;BME280;64906;51.290;7.348;2023-12-28T10:17:05;98425.19;;;18.97;50.58
76156;BME280;64906;51.290;7.348;2023-12-28T10:19:31;98408.78;;;18.97;50.47
76156;BME280;64906;51.290;7.348;2023-12-28T10:21:57;98403.38;;;18.92;50.77
76156;BME280;64906;51.290;7.348;2023-12-28T10:24:22;98409.84;;;19.01;50.62
76156;BME280;64906;51.290;7.348;2023-12-28T10:26:48;98410.44;;;18.98;51.02
76156;BME280;64906;51.290;7.348;2023-12-28T10:29:14;98410.75;;;19.15;50.92
76156;BME280;64906;51.290;7.348;2023-12-28T10:31:42;98406.53;;;19.04;50.91
76156;BME280;64906;51.290;7.348;2023-12-28T10:34:08;98406.59;;;18.99;50.83
76156;BME280;64906;51.290;7.348;2023-12-28T10:36:34;98409.22;;;19.09;50.53
76156;BME280;64906;51.290;7.348;2023-12-28T10:39:01;98401.41;;;18.98;50.92
76156;BME280;64906;51.290;7.348;2023-12-28T10:41:30;98403.72;;;19.09;50.55
76156;BME280;64906;51.290;7.348;2023-12-28T10:44:01;98401.16;;;19.18;50.99
76156;BME280;64906;51.290;7.348;2023-12-28T10:46:30;98404.72;;;19.18;50.84
76156;BME280;64906;51.290;7.348;2023-12-28T10:48:59;98404.38;;;19.25;50.54
76156;BME280;64906;51.290;7.348;2023-12-28T10:51:26;98402.91;;;19.32;50.01
76156;BME280;64906;51.290;7.348;2023-12-28T10:53:59;98395.94;;;19.21;50.43
76156;BME280;64906;51.290;7.348;2023-12-28T10:56:42;98404.63;;;19.23;50.39
76156;BME280;64906;51.290;7.348;2023-12-28T11:01:42;98397.09;;;19.15;50.33
76156;BME280;64906;51.290;7.348;2023-12-28T11:04:13;98394.22;;;19.07;50.52
76156;BME280;64906;51.290;7.348;2023-12-28T11:06:42;98377.88;;;19.20;49.98
76156;BME280;64906;51.290;7.348;2023-12-28T11:09:09;98381.31;;;19.07;50.50
76156;BME280;64906;51.290;7.348;2023-12-28T11:11:36;98384.97;;;19.21;50.03
76156;BME280;64906;51.290;7.348;2023-12-28T11:14:02;98375.84;;;19.31;49.59
76156;BME280;64906;51.290;7.348;2023-12-28T11:16:29;98382.94;;;19.32;49.48
76156;BME280;64906;51.290;7.348;2023-12-28T11:18:55;98379.03;;;19.38;49.38
76156;BME280;64906;51.290;7.348;2023-12-28T11:21:22;98384.78;;;19.36;49.51
76156;BME280;64906;51.290;7.348;2023-12-28T11:23:48;98376.97;;;19.48;49.27
76156;BME280;64906;51.290;7.348;2023-12-28T11:26:18;98398.56;;;19.50;49.06
76156;BME280;64906;51.290;7.348;2023-12-28T11:28:44;98386.81;;;19.49;49.01
76156;BME280;64906;51.290;7.348;2023-12-28T11:31:10;98387.78;;;19.58;48.93
76156;BME280;64906;51.290;7.348;2023-12-28T11:33:44;98375.41;;;19.61;48.51
76156;BME280;64906;51.290;7.348;2023-12-28T11:36:09;98387.00;;;19.53;48.67
76156;BME280;64906;51.290;7.348;2023-12-28T11:38:37;98384.56;;;19.51;48.69
76156;BME280;64906;51.290;7.348;2023-12-28T11:41:04;98391.78;;;19.47;48.63
76156;BME280;64906;51.290;7.348;2023-12-28T11:43:29;98377.78;;;19.49;48.86
76156;BME280;64906;51.290;7.348;2023-12-28T11:45:58;98375.56;;;19.51;48.75
76156;BME280;64906;51.290;7.348;2023-12-28T11:48:25;98373.69;;;19.46;48.63
76156;BME280;64906;51.290;7.348;2023-12-28T11:50:57;98370.41;;;19.49;48.91
76156;BME280;64906;51.290;7.348;2023-12-28T11:53:24;98373.94;;;19.50;48.76
76156;BME280;64906;51.290;7.348;2023-12-28T11:55:50;98376.13;;;19.48;48.75
76156;BME280;64906;51.290;7.348;2023-12-28T11:58:17;98372.66;;;19.61;48.40
76156;BME280;64906;51.290;7.348;2023-12-28T12:00:43;98375.31;;;19.66;48.37
76156;BME280;64906;51.290;7.348;2023-12-28T12:03:12;98367.19;;;19.61;48.25
76156;BME280;64906;51.290;7.348;2023-12-28T12:05:37;98361.56;;;19.71;48.03
76156;BME280;64906;51.290;7.348;2023-12-28T12:08:04;98359.78;;;19.61;48.53
76156;BME280;64906;51.290;7.348;2023-12-28T12:10:29;98356.38;;;19.69;48.17
76156;BME280;64906;51.290;7.348;2023-12-28T12:12:57;98358.09;;;19.65;48.33
76156;BME280;64906;51.290;7.348;2023-12-28T12:15:23;98363.44;;;19.75;48.28
76156;BME280;64906;51.290;7.348;2023-12-28T12:17:48;98355.78;;;19.72;48.34
76156;BME280;64906;51.290;7.348;2023-12-28T12:20:14;98358.13;;;19.79;47.82
76156;BME280;64906;51.290;7.348;2023-12-28T12:22:39;98355.78;;;19.72;48.36
76156;BME280;64906;51.290;7.348;2023-12-28T12:25:05;98350.91;;;19.69;48.20
76156;BME280;64906;51.290;7.348;2023-12-28T12:27:31;98350.31;;;19.72;48.21
76156;BME280;64906;51.290;7.348;2023-12-28T12:29:56;98356.22;;;19.61;48.25
76156;BME280;64906;51.290;7.348;2023-12-28T12:32:22;98349.06;;;19.65;48.21
76156;BME280;64906;51.290;7.348;2023-12-28T12:34:48;98345.47;;;19.51;48.50
76156;BME280;64906;51.290;7.348;2023-12-28T12:37:13;98344.56;;;19.55;48.51
76156;BME280;64906;51.290;7.348;2023-12-28T12:39:39;98341.75;;;19.60;48.41
76156;BME280;64906;51.290;7.348;2023-12-28T12:42:04;98352.09;;;19.63;48.33
76156;BME280;64906;51.290;7.348;2023-12-28T12:44:30;98340.78;;;19.51;48.72
76156;BME280;64906;51.290;7.348;2023-12-28T12:46:57;98336.88;;;19.57;48.42
76156;BME280;64906;51.290;7.348;2023-12-28T12:49:24;98335.44;;;19.60;47.97
76156;BME280;64906;51.290;7.348;2023-12-28T12:51:50;98340.09;;;19.59;48.46
76156;BME280;64906;51.290;7.348;2023-12-28T12:54:16;98341.28;;;19.53;48.44
76156;BME280;64906;51.290;7.348;2023-12-28T12:56:44;98337.97;;;19.56;47.63
76156;BME280;64906;51.290;7.348;2023-12-28T12:59:10;98341.75;;;19.60;48.04
76156;BME280;64906;51.290;7.348;2023-12-28T13:01:41;98334.81;;;19.49;48.23